createdAt,value
2022-08-06T00:00:38.961Z,97.01
2022-08-06T00:03:29.869Z,97.08
2022-08-06T00:06:16.681Z,96.93
2022-08-06T00:09:05.195Z,96.89
2022-08-06T00:11:59.139Z,96.66
2022-08-06T00:14:44.313Z,96.75
2022-08-06T00:17:31.782Z,97.02
2022-08-06T00:20:25.921Z,96.99
2022-08-06T00:23:17.415Z,97.52
2022-08-06T00:26:02.305Z,97.54
2022-08-06T00:28:47.279Z,97.69
2022-08-06T00:31:32.847Z,97.84
2022-08-06T00:34:18.051Z,97.75
2022-08-06T00:37:04.915Z,97.87
2022-08-06T00:40:03.835Z,97.57
2022-08-06T00:42:51.670Z,97.70
2022-08-06T00:45:45.544Z,97.95
2022-08-06T00:48:37.771Z,98.03
2022-08-06T00:51:51.085Z,97.90
2022-08-06T00:54:37.192Z,97.80
2022-08-06T00:57:26.722Z,97.75
2022-08-06T01:00:29.501Z,97.94
2022-08-06T01:03:18.706Z,98.32
2022-08-06T01:06:54.426Z,98.11
2022-08-06T01:09:17.140Z,98.21
2022-08-06T01:12:03.606Z,98.51
2022-08-06T01:15:02.530Z,98.88
2022-08-06T01:18:09.887Z,98.90
2022-08-06T01:21:56.580Z,98.95
2022-08-06T01:24:53.218Z,98.63
2022-08-06T01:28:13.113Z,98.48
2022-08-06T01:31:17.775Z,98.45
2022-08-06T01:34:09.982Z,98.37
2022-08-06T01:37:27.065Z,98.33
2022-08-06T01:40:28.493Z,98.45
2022-08-06T01:44:05.912Z,98.53
2022-08-06T01:46:24.175Z,98.79
2022-08-06T01:49:26.207Z,98.97
2022-08-06T01:52:17.460Z,99.22
2022-08-06T01:55:21.577Z,99.07
2022-08-06T01:58:27.177Z,99.07
2022-08-06T02:01:16.358Z,98.94
2022-08-06T02:04:06.884Z,98.56
2022-08-06T02:06:56.755Z,98.55
2022-08-06T02:09:43.935Z,98.31
2022-08-06T02:12:34.880Z,98.22
2022-08-06T02:15:56.243Z,98.32
2022-08-06T02:18:37.613Z,98.60
2022-08-06T02:21:32.233Z,98.12
2022-08-06T02:24:20.110Z,98.32
2022-08-06T02:27:08.065Z,98.38
2022-08-06T02:30:06.349Z,98.40
2022-08-06T02:32:51.932Z,98.52
2022-08-06T02:35:50.911Z,98.71
2022-08-06T02:38:52.381Z,98.95
2022-08-06T02:41:55.350Z,98.98
2022-08-06T02:45:01.678Z,99.03
2022-08-06T02:48:01.870Z,99.20
2022-08-06T02:50:49.742Z,98.95
2022-08-06T02:54:02.603Z,98.90
2022-08-06T02:56:51.829Z,99.01
2022-08-06T02:59:47.696Z,99.13
2022-08-06T03:02:44.782Z,99.43
2022-08-06T03:05:56.249Z,99.61
2022-08-06T03:08:37.524Z,100.00
2022-08-06T03:11:24.831Z,99.87
2022-08-06T03:15:04.612Z,100.00
2022-08-06T03:17:19.929Z,99.23
2022-08-06T03:20:08.662Z,99.19
2022-08-06T03:23:05.332Z,98.68
2022-08-06T03:25:51.711Z,97.81
2022-08-06T03:28:36.973Z,96.93
2022-08-06T03:31:23.385Z,95.76
2022-08-06T03:34:19.525Z,95.14
2022-08-06T03:37:08.232Z,94.38
2022-08-06T03:39:55.381Z,93.76
2022-08-06T03:42:43.992Z,92.71
2022-08-06T03:45:45.998Z,91.81
2022-08-06T03:48:42.366Z,91.02
2022-08-06T03:51:50.636Z,89.94
2022-08-06T03:54:41.184Z,88.83
2022-08-06T03:57:47.422Z,87.73
2022-08-06T04:00:40.793Z,87.09
2022-08-06T04:03:35.374Z,86.29
2022-08-06T04:06:27.486Z,84.37
2022-08-06T04:09:13.854Z,83.03
2022-08-06T04:13:06.400Z,81.22
2022-08-06T04:15:24.960Z,79.50
2022-08-06T04:18:23.925Z,78.78
2022-08-06T04:22:56.615Z,77.84
2022-08-06T04:24:22.294Z,76.71
2022-08-06T04:27:10.793Z,75.76
2022-08-06T04:30:02.192Z,74.98
2022-08-06T04:33:00.990Z,73.85
2022-08-06T04:36:05.000Z,73.07
2022-08-06T04:38:53.141Z,72.27
2022-08-06T04:41:38.920Z,71.76
2022-08-06T04:44:28.222Z,71.29
2022-08-06T04:47:14.984Z,71.12
2022-08-06T04:50:09.127Z,70.66
2022-08-06T04:53:08.651Z,70.46
2022-08-06T04:56:03.685Z,70.66
2022-08-06T04:58:49.290Z,69.57
2022-08-06T05:01:40.803Z,68.89
2022-08-06T05:04:40.294Z,68.00
2022-08-06T05:07:49.755Z,67.69
2022-08-06T05:11:16.157Z,66.85
2022-08-06T05:14:15.792Z,66.34
2022-08-06T05:17:02.575Z,66.23
2022-08-06T05:19:54.285Z,66.28
2022-08-06T05:22:54.208Z,66.79
2022-08-06T05:25:40.117Z,67.43
2022-08-06T05:28:40.651Z,67.01
2022-08-06T05:31:29.956Z,66.73
2022-08-06T05:34:23.694Z,66.57
2022-08-06T05:37:09.630Z,67.23
2022-08-06T05:39:57.939Z,66.59
2022-08-06T05:42:44.096Z,66.45
2022-08-06T05:45:45.232Z,66.10
2022-08-06T05:48:35.096Z,65.94
2022-08-06T05:51:42.743Z,65.98
2022-08-06T05:54:38.456Z,65.13
2022-08-06T05:57:41.742Z,65.59
2022-08-06T06:00:44.010Z,65.73
2022-08-06T06:03:33.357Z,65.13
2022-08-06T06:06:19.006Z,65.11
2022-08-06T06:09:03.761Z,64.77
2022-08-06T06:12:01.595Z,64.42
2022-08-06T06:14:49.015Z,63.84
2022-08-06T06:17:59.885Z,64.00
2022-08-06T06:21:04.174Z,63.67
2022-08-06T06:24:40.302Z,62.99
2022-08-06T06:27:56.223Z,62.80
2022-08-06T06:31:02.283Z,62.18
2022-08-06T06:33:53.769Z,61.94
2022-08-06T06:36:56.405Z,61.84
2022-08-06T06:40:02.638Z,60.81
2022-08-06T06:43:01.496Z,60.40
2022-08-06T06:46:39.138Z,60.47
2022-08-06T06:49:59.870Z,60.00
2022-08-06T06:52:49.186Z,60.04
2022-08-06T06:55:57.445Z,59.76
2022-08-06T06:58:49.393Z,59.74
2022-08-06T07:01:35.895Z,59.12
2022-08-06T07:04:26.929Z,58.08
2022-08-06T07:07:23.179Z,56.84
2022-08-06T07:10:11.705Z,56.26
2022-08-06T07:12:58.502Z,56.15
2022-08-06T07:15:44.755Z,56.32
2022-08-06T07:18:39.939Z,55.93
2022-08-06T07:21:36.522Z,54.60
2022-08-06T07:24:40.224Z,54.09
2022-08-06T07:27:44.955Z,53.55
2022-08-06T07:30:36.586Z,53.67
2022-08-06T07:33:23.112Z,53.18
2022-08-06T07:36:11.593Z,52.31
2022-08-06T07:39:04.646Z,51.42
2022-08-06T07:42:11.290Z,50.44
2022-08-06T07:45:03.437Z,52.07
2022-08-06T07:47:55.859Z,50.84
2022-08-06T07:50:45.286Z,50.70
2022-08-06T07:53:40.951Z,49.71
2022-08-06T07:56:39.688Z,51.11
2022-08-06T07:59:45.234Z,50.93
2022-08-06T08:02:30.393Z,51.02
2022-08-06T08:05:38.923Z,50.84
2022-08-06T08:08:29.909Z,49.11
2022-08-06T08:11:18.049Z,47.41
2022-08-06T08:14:07.309Z,46.29
2022-08-06T08:16:52.564Z,45.01
2022-08-06T08:19:38.703Z,43.29
2022-08-06T08:22:24.804Z,43.49
2022-08-06T08:25:10.076Z,43.21
2022-08-06T08:27:55.778Z,43.31
2022-08-06T08:30:41.795Z,42.54
2022-08-06T08:33:27.109Z,41.19
2022-08-06T08:36:12.113Z,40.96
2022-08-06T08:38:58.071Z,41.11
2022-08-06T08:42:02.029Z,40.27
2022-08-06T08:44:53.579Z,40.38
2022-08-06T08:47:57.469Z,41.51
2022-08-06T08:50:43.423Z,44.39
2022-08-06T08:53:53.825Z,43.94
2022-08-06T08:57:08.621Z,43.73
2022-08-06T08:59:59.997Z,44.30
2022-08-06T09:02:48.620Z,44.18
2022-08-06T09:05:35.864Z,41.77
2022-08-06T09:08:58.893Z,41.04
2022-08-06T09:12:06.088Z,40.59
2022-08-06T09:14:33.472Z,39.59
2022-08-06T09:18:12.444Z,39.80
2022-08-06T09:20:23.858Z,38.60
2022-08-06T09:23:08.801Z,37.32
2022-08-06T09:25:57.776Z,37.22
2022-08-06T09:28:45.189Z,35.96
2022-08-06T09:31:44.681Z,35.43
2022-08-06T09:34:39.363Z,35.03
2022-08-06T09:37:53.212Z,34.87
2022-08-06T09:40:39.606Z,34.11
2022-08-06T09:43:34.351Z,33.81
2022-08-06T09:46:42.128Z,32.96
2022-08-06T09:49:47.675Z,33.39
2022-08-06T09:53:00.666Z,32.62
2022-08-06T09:55:45.951Z,32.77
2022-08-06T09:58:35.811Z,32.88
2022-08-06T10:01:23.459Z,32.51
2022-08-06T10:04:36.618Z,32.71
2022-08-06T10:07:40.614Z,32.43
2022-08-06T10:10:46.825Z,32.36
2022-08-06T10:13:43.854Z,32.22
2022-08-06T10:16:33.865Z,31.11
2022-08-06T10:19:19.661Z,31.15
2022-08-06T10:22:18.273Z,31.34
2022-08-06T10:25:12.723Z,34.16
2022-08-06T10:28:01.199Z,36.62
2022-08-06T10:30:46.541Z,39.01
2022-08-06T10:33:40.870Z,37.45
2022-08-06T10:36:36.749Z,34.72
2022-08-06T10:40:09.514Z,31.95
2022-08-06T10:42:37.210Z,29.91
2022-08-06T10:45:27.231Z,28.88
2022-08-06T10:48:59.449Z,28.89
2022-08-06T10:51:17.879Z,28.77
2022-08-06T10:54:24.640Z,27.59
2022-08-06T10:57:12.924Z,27.37
2022-08-06T11:00:09.154Z,26.69
2022-08-06T11:03:15.614Z,27.00
2022-08-06T11:06:28.146Z,26.64
2022-08-06T11:10:00.104Z,26.57
2022-08-06T11:12:59.339Z,25.34
2022-08-06T11:15:45.323Z,25.28
2022-08-06T11:18:30.296Z,26.00
2022-08-06T11:21:58.831Z,25.88
2022-08-06T11:24:54.743Z,24.75
2022-08-06T11:28:04.886Z,26.29
2022-08-06T11:30:53.798Z,28.96
2022-08-06T11:33:39.121Z,31.33
2022-08-06T11:36:27.999Z,33.82
2022-08-06T11:39:17.512Z,36.19
2022-08-06T11:42:03.733Z,38.12
2022-08-06T11:45:06.093Z,35.41
2022-08-06T11:48:12.959Z,36.06
2022-08-06T11:51:43.915Z,36.64
2022-08-06T11:54:33.746Z,32.50
2022-08-06T11:57:32.877Z,30.52
2022-08-06T12:00:25.900Z,27.97
2022-08-06T12:03:16.230Z,28.42
2022-08-06T12:06:18.232Z,30.78
2022-08-06T12:09:16.016Z,33.64
2022-08-06T12:12:29.162Z,34.82
2022-08-06T12:15:20.160Z,32.87
2022-08-06T12:18:29.954Z,31.56
2022-08-06T12:21:18.364Z,32.40
2022-08-06T12:24:03.847Z,32.02
2022-08-06T12:26:49.386Z,29.64
2022-08-06T12:29:42.325Z,27.76
2022-08-06T12:32:30.446Z,26.84
2022-08-06T12:35:15.560Z,26.24
2022-08-06T12:38:01.538Z,25.91
2022-08-06T12:40:58.135Z,25.35
2022-08-06T12:43:56.977Z,24.00
2022-08-06T12:46:43.408Z,24.38
2022-08-06T12:49:42.262Z,25.84
2022-08-06T12:52:30.108Z,27.74
2022-08-06T12:55:19.284Z,29.27
2022-08-06T12:58:13.530Z,31.47
2022-08-06T13:01:16.288Z,33.75
2022-08-06T13:04:22.571Z,33.28
2022-08-06T13:07:20.437Z,30.13
2022-08-06T13:10:34.533Z,27.57
2022-08-06T13:14:13.450Z,25.38
2022-08-06T13:16:28.554Z,24.39
2022-08-06T13:19:18.973Z,27.00
2022-08-06T13:22:05.528Z,30.52
2022-08-06T13:25:48.540Z,33.01
2022-08-06T13:28:22.418Z,36.29
2022-08-06T13:31:36.599Z,37.36
2022-08-06T13:34:25.759Z,38.54
2022-08-06T13:37:15.726Z,36.68
2022-08-06T13:40:00.907Z,33.16
2022-08-06T13:42:53.542Z,29.48
2022-08-06T13:45:55.446Z,27.13
2022-08-06T13:48:50.389Z,26.03
2022-08-06T13:51:37.678Z,24.80
2022-08-06T13:54:37.949Z,24.29
2022-08-06T13:57:22.919Z,23.15
2022-08-06T14:00:08.347Z,23.50
2022-08-06T14:02:55.323Z,23.61
2022-08-06T14:05:41.199Z,24.56
2022-08-06T14:08:36.067Z,23.39
2022-08-06T14:11:22.022Z,24.92
2022-08-06T14:14:06.781Z,25.30
2022-08-06T14:16:53.879Z,28.47
2022-08-06T14:20:09.429Z,31.32
2022-08-06T14:22:43.299Z,34.38
2022-08-06T14:25:28.663Z,36.57
2022-08-06T14:28:34.706Z,38.29
2022-08-06T14:31:29.668Z,38.53
2022-08-06T14:34:14.688Z,38.78
2022-08-06T14:37:00.713Z,40.85
2022-08-06T14:39:59.407Z,41.44
2022-08-06T14:43:03.715Z,42.26
2022-08-06T14:45:49.727Z,42.73
2022-08-06T14:48:34.567Z,43.22
2022-08-06T14:51:22.915Z,44.06
2022-08-06T14:54:11.468Z,44.65
2022-08-06T14:57:14.869Z,44.42
2022-08-06T15:00:03.495Z,44.99
2022-08-06T15:02:51.751Z,45.95
2022-08-06T15:05:42.720Z,42.46
2022-08-06T15:08:48.652Z,38.25
2022-08-06T15:11:59.231Z,38.26
2022-08-06T15:14:39.018Z,39.24
2022-08-06T15:18:06.940Z,40.99
2022-08-06T15:20:41.426Z,43.04
2022-08-06T15:23:44.854Z,43.08
2022-08-06T15:26:42.254Z,42.10
2022-08-06T15:29:34.718Z,40.32
2022-08-06T15:32:20.173Z,40.67
2022-08-06T15:35:08.769Z,40.96
2022-08-06T15:37:57.689Z,41.14
2022-08-06T15:40:45.883Z,41.45
2022-08-06T15:43:43.714Z,40.43
2022-08-06T15:46:29.578Z,38.96
2022-08-06T15:49:20.645Z,37.39
2022-08-06T15:52:12.235Z,35.12
2022-08-06T15:54:57.285Z,34.44
2022-08-06T15:58:05.436Z,35.95
2022-08-06T16:01:00.186Z,35.83
2022-08-06T16:03:50.378Z,36.65
2022-08-06T16:06:42.486Z,37.78
2022-08-06T16:09:56.250Z,39.67
2022-08-06T16:12:40.990Z,39.73
2022-08-06T16:15:29.848Z,38.80
2022-08-06T16:18:31.152Z,37.83
2022-08-06T16:21:17.195Z,39.25
2022-08-06T16:24:04.207Z,41.40
2022-08-06T16:26:57.543Z,41.59
2022-08-06T16:29:44.192Z,41.75
2022-08-06T16:32:32.369Z,40.41
2022-08-06T16:35:21.217Z,39.81
2022-08-06T16:38:12.203Z,39.26
2022-08-06T16:41:02.586Z,40.36
2022-08-06T16:43:49.853Z,40.37
2022-08-06T16:46:38.040Z,39.75
2022-08-06T16:49:25.710Z,40.32
2022-08-06T16:52:42.633Z,40.26
2022-08-06T16:55:35.790Z,40.73
2022-08-06T16:58:35.295Z,41.08
2022-08-06T17:07:42.051Z,44.56
2022-08-06T17:10:30.705Z,45.45
2022-08-06T17:13:37.847Z,47.82
2022-08-06T17:16:29.087Z,49.30
2022-08-06T17:19:17.513Z,51.98
2022-08-06T17:22:03.466Z,54.26
2022-08-06T17:24:48.772Z,56.30
2022-08-06T17:27:44.169Z,58.37
2022-08-06T17:30:43.246Z,60.18
2022-08-06T17:33:40.022Z,61.80
2022-08-06T17:36:29.242Z,63.73
2022-08-06T17:39:19.990Z,65.13
2022-08-06T17:42:11.755Z,66.58
2022-08-06T17:44:56.937Z,67.54
2022-08-06T17:47:51.320Z,67.42
2022-08-06T17:50:40.565Z,67.61
2022-08-06T17:53:53.281Z,68.50
2022-08-06T17:56:32.617Z,69.78
2022-08-06T17:59:21.416Z,70.19
2022-08-06T18:02:07.321Z,70.94
2022-08-06T18:04:53.243Z,72.08
2022-08-06T18:08:11.889Z,72.89
2022-08-06T18:10:44.422Z,73.73
2022-08-06T18:13:52.594Z,74.44
2022-08-06T18:16:34.578Z,74.26
2022-08-06T18:19:21.053Z,73.57
2022-08-06T18:22:25.206Z,73.51
2022-08-06T18:25:15.120Z,73.67
2022-08-06T18:28:01.200Z,73.94
2022-08-06T18:30:48.117Z,74.16
2022-08-06T18:33:33.521Z,74.71
2022-08-06T18:36:18.494Z,74.76
2022-08-06T18:39:23.047Z,75.30
2022-08-06T18:42:23.558Z,76.58
2022-08-06T18:45:09.355Z,76.66
2022-08-06T18:47:59.660Z,76.84
2022-08-06T18:50:46.222Z,77.15
2022-08-06T18:54:02.062Z,77.78
2022-08-06T18:56:36.484Z,78.98
2022-08-06T18:59:23.165Z,79.30
2022-08-06T19:02:11.763Z,79.78
2022-08-06T19:05:01.036Z,80.55
2022-08-06T19:07:51.882Z,80.55
2022-08-06T19:10:38.673Z,81.05
2022-08-06T19:13:24.439Z,81.26
2022-08-06T19:16:29.673Z,81.26
2022-08-06T19:19:14.758Z,81.65
2022-08-06T19:21:59.756Z,82.10
2022-08-06T19:24:46.851Z,82.19
2022-08-06T19:28:30.243Z,82.32
2022-08-06T19:30:45.346Z,82.74
2022-08-06T19:33:31.285Z,82.96
2022-08-06T19:36:26.429Z,83.35
2022-08-06T19:39:53.197Z,83.17
2022-08-06T19:42:32.024Z,83.10
2022-08-06T19:45:18.028Z,82.89
2022-08-06T19:48:29.141Z,83.12
2022-08-06T19:52:02.585Z,83.47
2022-08-06T19:54:26.055Z,83.83
2022-08-06T19:57:21.492Z,84.04
2022-08-06T20:00:50.916Z,83.56
2022-08-06T20:03:14.045Z,83.93
2022-08-06T20:06:21.721Z,83.70
2022-08-06T20:09:05.293Z,84.24
2022-08-06T20:12:04.379Z,84.31
2022-08-06T20:14:52.758Z,84.77
2022-08-06T20:17:45.844Z,85.26
2022-08-06T20:20:33.746Z,85.35
2022-08-06T20:23:19.249Z,85.43
2022-08-06T20:26:09.044Z,85.88
2022-08-06T20:29:22.979Z,85.90
2022-08-06T20:32:16.914Z,86.22
2022-08-06T20:35:02.563Z,86.75
2022-08-06T20:37:52.517Z,86.34
2022-08-06T20:41:58.683Z,86.12
2022-08-06T20:44:05.029Z,86.02
2022-08-06T20:47:45.038Z,86.31
2022-08-06T20:50:04.183Z,86.40
2022-08-06T20:52:51.262Z,86.69
2022-08-06T20:55:38.545Z,86.79
2022-08-06T20:58:28.651Z,86.91
2022-08-06T21:01:19.941Z,86.77
2022-08-06T21:05:15.309Z,86.51
2022-08-06T21:07:13.819Z,86.54
2022-08-06T21:09:58.729Z,86.77
2022-08-06T21:12:59.074Z,86.57
2022-08-06T21:16:04.492Z,86.06
2022-08-06T21:18:52.240Z,86.18
2022-08-06T21:21:37.671Z,86.38
2022-08-06T21:24:23.829Z,86.72
2022-08-06T21:27:11.012Z,86.90
2022-08-06T21:30:09.917Z,87.15
2022-08-06T21:32:56.371Z,87.16
2022-08-06T21:35:43.723Z,87.10
2022-08-06T21:38:28.719Z,87.39
2022-08-06T21:41:29.998Z,87.64
2022-08-06T21:44:33.638Z,87.86
2022-08-06T21:47:19.621Z,88.26
2022-08-06T21:50:25.523Z,88.12
2022-08-06T21:53:48.646Z,88.32
2022-08-06T21:56:37.093Z,88.30
2022-08-06T21:59:23.667Z,88.57
2022-08-06T22:02:18.800Z,88.35
2022-08-06T22:06:15.096Z,88.49
2022-08-06T22:08:15.032Z,88.27
2022-08-06T22:12:37.794Z,88.30
2022-08-06T22:14:05.470Z,88.60
2022-08-06T22:16:54.237Z,88.70
2022-08-06T22:19:43.512Z,88.87
2022-08-06T22:22:28.853Z,88.78
2022-08-06T22:25:14.014Z,88.92
2022-08-06T22:28:02.381Z,89.21
2022-08-06T22:30:47.367Z,89.75
2022-08-06T22:33:33.543Z,91.66
2022-08-06T22:36:37.353Z,92.93
2022-08-06T22:39:39.879Z,93.82
2022-08-06T22:42:56.228Z,94.25
2022-08-06T22:46:00.205Z,94.28
2022-08-06T22:48:36.924Z,94.27
2022-08-06T22:51:28.765Z,94.16
2022-08-06T22:54:28.988Z,94.24
2022-08-06T22:57:25.701Z,94.34
2022-08-06T23:00:23.055Z,94.38
2022-08-06T23:03:13.518Z,94.73
2022-08-06T23:06:00.422Z,94.85
2022-08-06T23:08:45.961Z,94.92
2022-08-06T23:11:34.701Z,95.66
2022-08-06T23:14:27.382Z,95.79
2022-08-06T23:17:21.834Z,96.14
2022-08-06T23:20:11.709Z,96.46
2022-08-06T23:22:58.242Z,96.80
2022-08-06T23:26:00.609Z,97.23
2022-08-06T23:28:47.950Z,97.61
2022-08-06T23:31:37.190Z,98.11
2022-08-06T23:34:36.008Z,98.31
2022-08-06T23:37:21.269Z,98.50
2022-08-06T23:40:16.073Z,98.77
2022-08-06T23:43:01.511Z,98.97
2022-08-06T23:45:48.106Z,99.44
2022-08-06T23:48:33.211Z,99.41
2022-08-06T23:52:01.290Z,99.80
2022-08-06T23:54:28.778Z,100.00
2022-08-06T23:57:17.771Z,100.00
